createdAt,value
2024-01-14T00:00:50.422Z,-3.57
2024-01-14T00:03:39.035Z,-3.57
2024-01-14T00:06:07.632Z,-3.59
2024-01-14T00:08:36.227Z,-3.59
2024-01-14T00:11:05.372Z,-3.60
2024-01-14T00:13:33.556Z,-3.60
2024-01-14T00:16:01.855Z,-3.63
2024-01-14T00:18:30.098Z,-3.70
2024-01-14T00:20:58.731Z,-3.78
2024-01-14T00:23:27.195Z,-3.83
2024-01-14T00:25:55.952Z,-3.89
2024-01-14T00:28:24.373Z,-3.96
2024-01-14T00:30:52.769Z,-4.02
2024-01-14T00:33:21.343Z,-4.04
2024-01-14T00:35:50.074Z,-4.04
2024-01-14T00:38:18.511Z,-4.05
2024-01-14T00:40:46.581Z,-4.09
2024-01-14T00:43:15.149Z,-4.11
2024-01-14T00:45:43.429Z,-4.14
2024-01-14T00:48:15.020Z,-4.20
2024-01-14T00:50:43.392Z,-4.27
2024-01-14T00:53:11.964Z,-4.34
2024-01-14T00:55:40.468Z,-4.40
2024-01-14T00:58:08.811Z,-4.42
2024-01-14T01:00:37.390Z,-4.46
2024-01-14T01:03:06.818Z,-4.49
2024-01-14T01:05:36.142Z,-4.47
2024-01-14T01:08:04.949Z,-4.46
2024-01-14T01:10:33.115Z,-4.45
2024-01-14T01:13:01.478Z,-4.47
2024-01-14T01:15:30.197Z,-4.50
2024-01-14T01:17:58.675Z,-4.57
2024-01-14T01:20:27.372Z,-4.64
2024-01-14T01:22:55.711Z,-4.69
2024-01-14T01:25:24.547Z,-4.76
2024-01-14T01:27:53.456Z,-4.83
2024-01-14T01:30:22.015Z,-4.88
2024-01-14T01:32:50.996Z,-4.92
2024-01-14T01:35:19.563Z,-4.93
2024-01-14T01:37:47.659Z,-4.95
2024-01-14T01:40:16.250Z,-4.98
2024-01-14T01:42:45.004Z,-5.01
2024-01-14T01:45:13.608Z,-5.06
2024-01-14T01:47:41.854Z,-5.09
2024-01-14T01:50:11.116Z,-5.15
2024-01-14T01:52:40.970Z,-5.20
2024-01-14T01:55:12.085Z,-5.23
2024-01-14T01:57:40.340Z,-5.28
2024-01-14T02:00:12.471Z,-5.37
2024-01-14T02:02:45.322Z,-5.42
2024-01-14T02:05:14.760Z,-5.48
2024-01-14T02:07:44.633Z,-5.50
2024-01-14T02:10:13.504Z,-5.55
2024-01-14T02:12:41.879Z,-5.65
2024-01-14T02:15:10.490Z,-5.73
2024-01-14T02:17:38.818Z,-5.82
2024-01-14T02:20:09.621Z,-5.89
2024-01-14T02:22:41.638Z,-5.91
2024-01-14T02:25:10.116Z,-5.93
2024-01-14T02:27:39.018Z,-6.02
2024-01-14T02:30:10.870Z,-6.09
2024-01-14T02:32:40.197Z,-6.14
2024-01-14T02:35:09.571Z,-6.17
2024-01-14T02:37:44.704Z,-6.21
2024-01-14T02:40:13.585Z,-6.24
2024-01-14T02:42:42.231Z,-6.29
2024-01-14T02:45:11.684Z,-6.34
2024-01-14T02:47:40.941Z,-6.38
2024-01-14T02:50:10.121Z,-6.40
2024-01-14T02:52:38.322Z,-6.44
2024-01-14T02:55:07.583Z,-6.47
2024-01-14T02:57:35.966Z,-6.50
2024-01-14T03:00:05.639Z,-6.49
2024-01-14T03:02:34.329Z,-6.48
2024-01-14T03:05:02.529Z,-6.47
2024-01-14T03:07:30.711Z,-6.46
2024-01-14T03:09:59.180Z,-6.43
2024-01-14T03:12:27.626Z,-6.41
2024-01-14T03:14:56.145Z,-6.44
2024-01-14T03:17:24.754Z,-6.45
2024-01-14T03:19:53.314Z,-6.44
2024-01-14T03:22:21.618Z,-6.46
2024-01-14T03:24:49.809Z,-6.48
2024-01-14T03:27:17.961Z,-6.49
2024-01-14T03:29:46.100Z,-6.48
2024-01-14T03:32:14.277Z,-6.48
2024-01-14T03:34:42.497Z,-6.52
2024-01-14T03:37:10.715Z,-6.58
2024-01-14T03:39:39.030Z,-6.65
2024-01-14T03:42:07.800Z,-6.80
2024-01-14T03:44:36.122Z,-6.91
2024-01-14T03:47:05.023Z,-7.01
2024-01-14T03:49:33.586Z,-7.09
2024-01-14T03:52:01.853Z,-7.17
2024-01-14T03:54:30.185Z,-7.22
2024-01-14T03:56:58.510Z,-7.26
2024-01-14T03:59:26.944Z,-7.32
2024-01-14T04:01:55.151Z,-7.35
2024-01-14T04:04:23.411Z,-7.44
2024-01-14T04:06:51.775Z,-7.56
2024-01-14T04:09:20.384Z,-7.62
2024-01-14T04:11:48.884Z,-7.64
2024-01-14T04:14:17.316Z,-7.67
2024-01-14T04:16:45.852Z,-7.70
2024-01-14T04:19:14.245Z,-7.75
2024-01-14T04:21:42.689Z,-7.74
2024-01-14T04:24:11.231Z,-7.76
2024-01-14T04:26:39.978Z,-7.77
2024-01-14T04:29:08.141Z,-7.74
2024-01-14T04:31:36.594Z,-7.70
2024-01-14T04:34:05.939Z,-7.71
2024-01-14T04:36:34.425Z,-7.70
2024-01-14T04:39:03.476Z,-7.73
2024-01-14T04:41:31.680Z,-7.76
2024-01-14T04:44:00.254Z,-7.77
2024-01-14T04:46:28.750Z,-7.74
2024-01-14T04:48:57.233Z,-7.69
2024-01-14T04:51:25.934Z,-7.71
2024-01-14T04:53:54.239Z,-7.71
2024-01-14T04:56:22.527Z,-7.72
2024-01-14T04:58:51.182Z,-7.76
2024-01-14T05:01:19.356Z,-7.80
2024-01-14T05:03:47.846Z,-7.81
2024-01-14T05:06:16.551Z,-7.81
2024-01-14T05:08:45.081Z,-7.83
2024-01-14T05:11:13.202Z,-7.87
2024-01-14T05:13:41.955Z,-7.98
2024-01-14T05:16:11.281Z,-8.06
2024-01-14T05:18:39.663Z,-8.12
2024-01-14T05:21:07.944Z,-8.20
2024-01-14T05:23:36.317Z,-8.18
2024-01-14T05:26:04.967Z,-8.12
2024-01-14T05:28:33.500Z,-8.09
2024-01-14T05:31:02.199Z,-8.07
2024-01-14T05:33:30.526Z,-8.07
2024-01-14T05:35:58.922Z,-8.08
2024-01-14T05:38:27.073Z,-8.15
2024-01-14T05:40:56.309Z,-8.20
2024-01-14T05:43:25.033Z,-8.24
2024-01-14T05:45:53.470Z,-8.29
2024-01-14T05:48:24.019Z,-8.30
2024-01-14T05:50:52.959Z,-8.31
2024-01-14T05:53:21.411Z,-8.31
2024-01-14T05:55:49.792Z,-8.33
2024-01-14T05:58:17.910Z,-8.35
2024-01-14T06:00:46.316Z,-8.38
2024-01-14T06:03:14.633Z,-8.39
2024-01-14T06:05:44.034Z,-8.44
2024-01-14T06:08:12.411Z,-8.41
2024-01-14T06:10:40.771Z,-8.38
2024-01-14T06:13:09.464Z,-8.34
2024-01-14T06:15:37.878Z,-8.35
2024-01-14T06:18:06.430Z,-8.40
2024-01-14T06:20:34.838Z,-8.43
2024-01-14T06:23:03.002Z,-8.43
2024-01-14T06:25:31.164Z,-8.45
2024-01-14T06:27:59.318Z,-8.49
2024-01-14T06:30:27.890Z,-8.45
2024-01-14T06:32:57.107Z,-8.44
2024-01-14T06:35:25.688Z,-8.46
2024-01-14T06:37:54.160Z,-8.43
2024-01-14T06:40:28.724Z,-8.40
2024-01-14T06:43:00.465Z,-8.43
2024-01-14T06:45:29.183Z,-8.47
2024-01-14T06:47:57.809Z,-8.50
2024-01-14T06:50:26.480Z,-8.51
2024-01-14T06:52:54.639Z,-8.48
2024-01-14T06:55:23.036Z,-8.46
2024-01-14T06:57:51.260Z,-8.43
2024-01-14T07:00:19.941Z,-8.36
2024-01-14T07:02:48.176Z,-8.28
2024-01-14T07:05:16.949Z,-8.24
2024-01-14T07:07:45.851Z,-8.27
2024-01-14T07:10:15.078Z,-8.28
2024-01-14T07:12:43.383Z,-8.22
2024-01-14T07:15:11.814Z,-8.09
2024-01-14T07:17:54.528Z,-7.97
2024-01-14T07:20:25.515Z,-7.84
2024-01-14T07:22:54.266Z,-7.72
2024-01-14T07:25:22.668Z,-7.58
2024-01-14T07:27:50.846Z,-7.45
2024-01-14T07:30:20.044Z,-7.33
2024-01-14T07:32:48.372Z,-7.22
2024-01-14T07:35:16.773Z,-7.10
2024-01-14T07:37:45.244Z,-6.97
2024-01-14T07:40:14.110Z,-6.91
2024-01-14T07:42:42.597Z,-6.84
2024-01-14T07:45:11.400Z,-6.70
2024-01-14T07:47:40.313Z,-6.51
2024-01-14T07:50:09.522Z,-6.35
2024-01-14T07:52:37.705Z,-6.17
2024-01-14T07:55:06.343Z,-6.02
2024-01-14T07:57:35.695Z,-5.89
2024-01-14T08:00:05.044Z,-5.76
2024-01-14T08:02:40.565Z,-5.63
2024-01-14T08:05:13.890Z,-5.59
2024-01-14T08:07:42.959Z,-5.51
2024-01-14T08:10:11.772Z,-5.45
2024-01-14T08:12:42.152Z,-5.42
2024-01-14T08:15:11.524Z,-5.34
2024-01-14T08:17:40.096Z,-5.23
2024-01-14T08:20:11.378Z,-5.05
2024-01-14T08:22:41.112Z,-4.84
2024-01-14T08:25:10.875Z,-4.67
2024-01-14T08:27:39.848Z,-4.52
2024-01-14T08:30:09.056Z,-4.41
2024-01-14T08:32:37.674Z,-4.28
2024-01-14T08:35:06.693Z,-4.16
2024-01-14T08:37:35.191Z,-4.06
2024-01-14T08:40:04.163Z,-3.85
2024-01-14T08:42:32.426Z,-3.40
2024-01-14T08:45:00.886Z,-2.96
2024-01-14T08:47:29.168Z,-2.62
2024-01-14T08:49:57.752Z,-2.22
2024-01-14T08:52:26.122Z,-1.98
2024-01-14T08:54:55.717Z,-1.81
2024-01-14T08:57:25.426Z,-1.71
2024-01-14T08:59:53.949Z,-1.49
2024-01-14T09:02:22.735Z,-1.41
2024-01-14T09:04:51.208Z,-1.40
2024-01-14T09:07:19.781Z,-1.29
2024-01-14T09:09:49.361Z,-1.14
2024-01-14T09:12:17.997Z,-1.11
2024-01-14T09:14:46.254Z,-1.00
2024-01-14T09:17:14.525Z,-0.80
2024-01-14T09:19:42.777Z,-0.72
2024-01-14T09:22:11.191Z,-0.77
2024-01-14T09:24:45.098Z,-0.79
2024-01-14T09:27:17.326Z,-0.81
2024-01-14T09:29:45.711Z,-0.80
2024-01-14T09:32:13.820Z,-0.86
2024-01-14T09:34:42.368Z,-0.90
2024-01-14T09:37:11.217Z,-0.84
2024-01-14T09:39:39.999Z,-0.81
2024-01-14T09:42:38.475Z,-0.93
2024-01-14T09:45:07.677Z,-0.86
2024-01-14T09:47:36.738Z,-0.82
2024-01-14T09:50:07.972Z,-0.69
2024-01-14T09:52:38.755Z,-0.59
2024-01-14T09:55:07.717Z,-0.10
2024-01-14T09:57:37.063Z,0.55
2024-01-14T10:00:06.853Z,0.94
2024-01-14T10:02:35.614Z,1.19
2024-01-14T10:05:04.130Z,1.22
2024-01-14T10:07:34.359Z,1.10
2024-01-14T10:10:02.846Z,1.07
2024-01-14T10:12:32.365Z,1.14
2024-01-14T10:15:02.049Z,1.59
2024-01-14T10:17:31.342Z,2.50
2024-01-14T10:20:00.022Z,3.37
2024-01-14T10:22:30.619Z,3.97
2024-01-14T10:24:58.814Z,4.43
2024-01-14T10:27:35.513Z,4.72
2024-01-14T10:30:12.912Z,4.76
2024-01-14T10:33:16.432Z,4.56
2024-01-14T10:35:32.045Z,4.42
2024-01-14T10:38:02.652Z,4.48
2024-01-14T10:40:31.537Z,4.61
2024-01-14T10:43:00.666Z,4.50
2024-01-14T10:45:32.266Z,4.45
2024-01-14T10:48:05.934Z,4.26
2024-01-14T10:50:41.998Z,4.02
2024-01-14T10:53:30.254Z,4.13
2024-01-14T10:56:03.139Z,4.36
2024-01-14T10:58:33.909Z,4.30
2024-01-14T11:01:06.395Z,4.36
2024-01-14T11:03:39.108Z,4.29
2024-01-14T11:06:08.128Z,4.13
2024-01-14T11:08:38.335Z,3.91
2024-01-14T11:11:07.249Z,3.82
2024-01-14T11:14:19.509Z,3.79
2024-01-14T11:17:00.604Z,3.85
2024-01-14T11:19:37.235Z,3.91
2024-01-14T11:22:29.274Z,3.79
2024-01-14T11:25:05.294Z,3.51
2024-01-14T11:27:35.799Z,3.35
2024-01-14T11:30:04.596Z,3.00
2024-01-14T11:32:33.148Z,2.65
2024-01-14T11:35:03.785Z,2.24
2024-01-14T11:37:39.323Z,1.88
2024-01-14T11:40:07.727Z,1.64
2024-01-14T11:42:37.037Z,1.37
2024-01-14T11:45:29.251Z,1.15
2024-01-14T11:48:03.682Z,0.98
2024-01-14T11:50:33.835Z,0.83
2024-01-14T11:53:05.908Z,0.56
2024-01-14T11:55:35.274Z,0.27
2024-01-14T11:58:10.968Z,0.03
2024-01-14T12:00:41.781Z,-0.22
2024-01-14T12:03:15.946Z,-0.48
2024-01-14T12:05:45.922Z,-0.66
2024-01-14T12:08:15.227Z,-0.81
2024-01-14T12:10:43.679Z,-0.86
2024-01-14T12:13:12.043Z,-0.91
2024-01-14T12:15:44.529Z,-0.97
2024-01-14T12:18:17.087Z,-1.04
2024-01-14T12:20:45.794Z,-1.06
2024-01-14T12:23:14.645Z,-1.07
2024-01-14T12:25:45.562Z,-1.10
2024-01-14T12:28:14.082Z,-1.17
2024-01-14T12:30:42.427Z,-1.30
2024-01-14T12:33:14.911Z,-1.35
2024-01-14T12:35:43.647Z,-1.42
2024-01-14T12:38:14.886Z,-1.54
2024-01-14T12:40:45.567Z,-1.68
2024-01-14T12:43:14.393Z,-1.77
2024-01-14T12:45:50.645Z,-1.80
2024-01-14T12:48:23.660Z,-1.90
2024-01-14T12:50:59.297Z,-2.00
2024-01-14T12:53:30.067Z,-2.12
2024-01-14T12:56:28.212Z,-2.23
2024-01-14T12:58:56.583Z,-2.33
2024-01-14T13:01:28.884Z,-2.38
2024-01-14T13:04:00.516Z,-2.42
2024-01-14T13:06:28.861Z,-2.49
2024-01-14T13:08:57.570Z,-2.52
2024-01-14T13:11:28.290Z,-2.59
2024-01-14T13:13:56.695Z,-2.66
2024-01-14T13:16:25.915Z,-2.70
2024-01-14T13:18:57.845Z,-2.72
2024-01-14T13:21:28.780Z,-2.77
2024-01-14T13:24:06.213Z,-2.83
2024-01-14T13:26:43.771Z,-2.88
2024-01-14T13:29:13.484Z,-2.94
2024-01-14T13:31:44.779Z,-2.94
2024-01-14T13:34:15.224Z,-2.92
2024-01-14T13:36:43.867Z,-2.94
2024-01-14T13:39:12.448Z,-2.96
2024-01-14T13:41:43.325Z,-2.93
2024-01-14T13:44:16.763Z,-2.95
2024-01-14T13:46:49.284Z,-3.01
2024-01-14T13:49:17.771Z,-3.01
2024-01-14T13:51:52.226Z,-3.04
2024-01-14T13:54:20.547Z,-3.03
2024-01-14T13:56:51.911Z,-3.04
2024-01-14T13:59:23.735Z,-3.08
2024-01-14T14:01:53.610Z,-3.11
2024-01-14T14:06:53.288Z,-3.33
2024-01-14T14:09:21.678Z,-3.49
2024-01-14T14:11:50.204Z,-3.57
2024-01-14T14:14:18.402Z,-3.63
2024-01-14T14:16:49.164Z,-3.68
2024-01-14T14:19:19.053Z,-3.74
2024-01-14T14:21:58.109Z,-3.82
2024-01-14T14:24:32.006Z,-3.93
2024-01-14T14:27:00.632Z,-4.05
2024-01-14T14:29:29.367Z,-4.13
2024-01-14T14:31:58.128Z,-4.24
2024-01-14T14:34:27.365Z,-4.32
2024-01-14T14:36:56.154Z,-4.42
2024-01-14T14:39:27.828Z,-4.55
2024-01-14T14:41:58.569Z,-4.69
2024-01-14T14:44:27.156Z,-4.82
2024-01-14T14:46:57.411Z,-4.90
2024-01-14T14:49:25.875Z,-4.94
2024-01-14T14:51:59.830Z,-4.97
2024-01-14T14:54:30.067Z,-5.04
2024-01-14T14:56:58.588Z,-5.12
2024-01-14T14:59:26.806Z,-5.26
2024-01-14T15:01:59.351Z,-5.36
2024-01-14T15:04:29.809Z,-5.43
2024-01-14T15:07:00.355Z,-5.53
2024-01-14T15:09:28.781Z,-5.59
2024-01-14T15:11:57.046Z,-5.60
2024-01-14T15:14:25.519Z,-5.60
2024-01-14T15:16:58.756Z,-5.65
2024-01-14T15:19:29.494Z,-5.71
2024-01-14T15:22:02.516Z,-5.74
2024-01-14T15:24:33.946Z,-5.73
2024-01-14T15:27:02.258Z,-5.70
2024-01-14T15:29:35.480Z,-5.67
2024-01-14T15:32:06.112Z,-5.71
2024-01-14T15:34:34.790Z,-5.72
2024-01-14T15:37:03.495Z,-5.71
2024-01-14T15:39:39.277Z,-5.72
2024-01-14T15:42:07.954Z,-5.76
2024-01-14T15:44:37.291Z,-5.76
2024-01-14T15:47:05.612Z,-5.76
2024-01-14T15:49:35.431Z,-5.75
2024-01-14T15:52:05.409Z,-5.77
2024-01-14T15:54:33.591Z,-5.81
2024-01-14T15:57:08.245Z,-5.88
2024-01-14T15:59:36.920Z,-5.93
2024-01-14T16:02:05.290Z,-5.93
2024-01-14T16:04:33.613Z,-5.92
2024-01-14T16:07:04.545Z,-5.89
2024-01-14T16:09:33.273Z,-5.88
2024-01-14T16:12:03.943Z,-5.86
2024-01-14T16:14:33.235Z,-5.85
2024-01-14T16:17:13.720Z,-5.87
2024-01-14T16:19:45.678Z,-5.88
2024-01-14T16:22:13.958Z,-5.89
2024-01-14T16:24:45.013Z,-5.92
2024-01-14T16:27:13.564Z,-5.97
2024-01-14T16:29:41.673Z,-6.02
2024-01-14T16:32:11.018Z,-6.06
2024-01-14T16:34:39.991Z,-6.07
2024-01-14T16:37:08.883Z,-6.07
2024-01-14T16:39:37.383Z,-6.10
2024-01-14T16:42:09.286Z,-6.18
2024-01-14T16:44:38.856Z,-6.21
2024-01-14T16:47:06.999Z,-6.23
2024-01-14T16:49:35.271Z,-6.22
2024-01-14T16:52:04.581Z,-6.25
2024-01-14T16:54:35.978Z,-6.28
2024-01-14T16:57:05.503Z,-6.30
2024-01-14T16:59:33.979Z,-6.28
2024-01-14T17:02:02.562Z,-6.30
2024-01-14T17:04:33.187Z,-6.34
2024-01-14T17:07:01.875Z,-6.34
2024-01-14T17:09:33.267Z,-6.35
2024-01-14T17:12:02.383Z,-6.34
2024-01-14T17:14:33.915Z,-6.29
2024-01-14T17:17:03.039Z,-6.19
2024-01-14T17:19:33.326Z,-6.12
2024-01-14T17:22:01.778Z,-6.04
2024-01-14T17:24:35.098Z,-6.00
2024-01-14T17:27:06.223Z,-5.93
2024-01-14T17:29:34.939Z,-5.90
2024-01-14T17:32:09.700Z,-5.89
2024-01-14T17:34:42.340Z,-5.90
2024-01-14T17:40:00.594Z,-5.83
2024-01-14T17:42:36.355Z,-5.78
2024-01-14T17:45:21.758Z,-5.72
2024-01-14T17:47:50.427Z,-5.70
2024-01-14T17:50:30.460Z,-5.68
2024-01-14T17:53:05.543Z,-5.72
2024-01-14T17:55:42.416Z,-5.77
2024-01-14T17:58:11.318Z,-5.80
2024-01-14T18:00:46.546Z,-5.82
2024-01-14T18:03:23.312Z,-5.81
2024-01-14T18:05:54.937Z,-5.79
2024-01-14T18:08:25.795Z,-5.79
2024-01-14T18:11:11.829Z,-5.78
2024-01-14T18:13:40.931Z,-5.78
2024-01-14T18:16:09.223Z,-5.81
2024-01-14T18:18:43.418Z,-5.85
2024-01-14T18:21:16.791Z,-5.90
2024-01-14T18:23:45.281Z,-5.94
2024-01-14T18:26:20.510Z,-5.98
2024-01-14T18:28:51.780Z,-6.01
2024-01-14T18:31:29.099Z,-6.15
2024-01-14T18:34:08.953Z,-6.28
2024-01-14T18:36:37.729Z,-6.35
2024-01-14T18:39:07.513Z,-6.41
2024-01-14T18:41:39.961Z,-6.44
2024-01-14T18:44:25.786Z,-6.50
2024-01-14T18:47:01.949Z,-6.57
2024-01-14T18:49:30.281Z,-6.60
2024-01-14T18:52:01.707Z,-6.63
2024-01-14T18:54:36.209Z,-6.65
2024-01-14T18:57:18.138Z,-6.66
2024-01-14T18:59:51.128Z,-6.69
2024-01-14T19:02:20.556Z,-6.70
2024-01-14T19:04:53.913Z,-6.73
2024-01-14T19:07:23.250Z,-6.76
2024-01-14T19:09:57.889Z,-6.82
2024-01-14T19:12:33.116Z,-6.90
2024-01-14T19:15:05.085Z,-6.97
2024-01-14T19:17:38.455Z,-7.03
2024-01-14T19:20:12.871Z,-7.05
2024-01-14T19:22:49.227Z,-7.04
2024-01-14T19:25:30.489Z,-7.07
2024-01-14T19:28:00.042Z,-7.03
2024-01-14T19:30:31.743Z,-6.98
2024-01-14T19:33:02.117Z,-7.00
2024-01-14T19:35:35.909Z,-7.07
2024-01-14T19:38:07.562Z,-7.06
2024-01-14T19:40:42.387Z,-7.02
2024-01-14T19:43:30.398Z,-7.03
2024-01-14T19:46:05.502Z,-6.98
2024-01-14T19:48:44.011Z,-6.97
2024-01-14T19:51:13.436Z,-6.99
2024-01-14T19:53:45.096Z,-6.99
2024-01-14T19:56:29.624Z,-6.99
2024-01-14T19:58:59.601Z,-6.96
2024-01-14T20:01:37.014Z,-6.93
2024-01-14T20:04:06.722Z,-6.87
2024-01-14T20:06:50.374Z,-6.81
2024-01-14T20:09:25.467Z,-6.74
2024-01-14T20:12:00.957Z,-6.68
2024-01-14T20:14:32.747Z,-6.65
2024-01-14T20:17:03.702Z,-6.63
2024-01-14T20:19:41.920Z,-6.62
2024-01-14T20:22:12.974Z,-6.65
2024-01-14T20:24:41.368Z,-6.68
2024-01-14T20:27:10.896Z,-6.66
2024-01-14T20:29:41.359Z,-6.63
2024-01-14T20:32:12.093Z,-6.62
2024-01-14T20:34:46.204Z,-6.60
2024-01-14T20:37:27.368Z,-6.56
2024-01-14T20:40:03.725Z,-6.61
2024-01-14T20:42:33.379Z,-6.63
2024-01-14T20:45:01.728Z,-6.67
2024-01-14T20:47:38.687Z,-6.74
2024-01-14T20:50:18.553Z,-6.87
2024-01-14T20:52:51.534Z,-6.90
2024-01-14T20:55:20.873Z,-6.94
2024-01-14T20:57:54.632Z,-6.93
2024-01-14T21:00:25.550Z,-6.91
2024-01-14T21:02:54.196Z,-6.93
2024-01-14T21:05:23.260Z,-6.97
2024-01-14T21:07:56.860Z,-6.96
2024-01-14T21:10:28.080Z,-6.97
2024-01-14T21:12:57.872Z,-6.99
2024-01-14T21:15:26.958Z,-6.96
2024-01-14T21:17:55.669Z,-6.93
2024-01-14T21:20:24.161Z,-6.94
2024-01-14T21:22:52.331Z,-6.99
2024-01-14T21:25:23.270Z,-7.01
2024-01-14T21:27:58.866Z,-7.01
2024-01-14T21:30:30.212Z,-7.05
2024-01-14T21:33:08.820Z,-7.09
2024-01-14T21:35:37.582Z,-7.13
2024-01-14T21:38:06.454Z,-7.18
2024-01-14T21:40:34.914Z,-7.23
2024-01-14T21:43:05.734Z,-7.29
2024-01-14T21:45:33.958Z,-7.32
2024-01-14T21:48:05.196Z,-7.36
2024-01-14T21:50:35.691Z,-7.43
2024-01-14T21:53:03.916Z,-7.50
2024-01-14T21:55:42.896Z,-7.55
2024-01-14T21:58:11.753Z,-7.60
2024-01-14T22:00:40.552Z,-7.61
2024-01-14T22:03:09.742Z,-7.63
2024-01-14T22:05:38.480Z,-7.63
2024-01-14T22:08:06.976Z,-7.65
2024-01-14T22:10:35.228Z,-7.71
2024-01-14T22:13:03.569Z,-7.75
2024-01-14T22:15:32.148Z,-7.77
2024-01-14T22:18:02.542Z,-7.80
2024-01-14T22:20:30.823Z,-7.86
2024-01-14T22:22:59.315Z,-7.90
2024-01-14T22:25:27.487Z,-7.92
2024-01-14T22:27:55.701Z,-7.95
2024-01-14T22:30:24.184Z,-7.98
2024-01-14T22:32:52.971Z,-7.99
2024-01-14T22:35:21.631Z,-8.01
2024-01-14T22:37:49.835Z,-7.99
2024-01-14T22:40:18.601Z,-7.98
2024-01-14T22:42:46.872Z,-8.00
2024-01-14T22:45:15.591Z,-8.03
2024-01-14T22:47:44.075Z,-8.08
2024-01-14T22:50:12.565Z,-8.08
2024-01-14T22:52:40.952Z,-8.11
2024-01-14T22:55:10.082Z,-8.12
2024-01-14T22:57:38.523Z,-8.10
2024-01-14T23:00:09.053Z,-8.07
2024-01-14T23:02:37.905Z,-8.12
2024-01-14T23:05:07.000Z,-8.16
2024-01-14T23:07:35.134Z,-8.22
2024-01-14T23:10:03.334Z,-8.27
2024-01-14T23:12:31.529Z,-8.32
2024-01-14T23:14:59.694Z,-8.34
2024-01-14T23:17:27.901Z,-8.33
2024-01-14T23:19:56.221Z,-8.30
2024-01-14T23:22:25.240Z,-8.26
2024-01-14T23:24:53.391Z,-8.23
2024-01-14T23:27:21.883Z,-8.22
2024-01-14T23:29:50.421Z,-8.23
2024-01-14T23:32:18.939Z,-8.24
2024-01-14T23:34:47.444Z,-8.32
2024-01-14T23:37:15.911Z,-8.37
2024-01-14T23:39:44.416Z,-8.44
2024-01-14T23:42:12.941Z,-8.46
2024-01-14T23:44:41.462Z,-8.50
2024-01-14T23:47:09.857Z,-8.52
2024-01-14T23:49:38.377Z,-8.54
2024-01-14T23:52:07.435Z,-8.52
2024-01-14T23:54:35.630Z,-8.51
2024-01-14T23:57:05.709Z,-8.56
2024-01-14T23:59:33.937Z,-8.57
